Time;durP1;ratioP1;P1;durP2;ratioP2;P2;SDS_P1;SDS_P2;PMS_P1;PMS_P2;Temp;Humidity;BMP_temperature;BMP_pressure;BME280_temperature;BME280_humidity;BME280_pressure;Samples;Min_cycle;Max_cycle;Signal;HPM_P1;HPM_P2
2023/04/08 00:02:03;;;;;;;0.50;0.40;;;21.20;51.60;;;;;;5073729;28;20195;-67
2023/04/08 00:04:31;;;;;;;0.53;0.50;;;21.20;50.80;;;;;;5074144;28;20194;-70
2023/04/08 00:06:59;;;;;;;0.60;0.30;;;21.30;51.70;;;;;;5089763;28;20191;-70
2023/04/08 00:09:26;;;;;;;0.33;0.33;;;21.20;51.60;;;;;;5071866;28;20776;-67
2023/04/08 00:11:53;;;;;;;0.83;0.40;;;21.30;51.20;;;;;;5073378;28;20668;-68
2023/04/08 00:14:21;;;;;;;0.80;0.40;;;21.40;50.20;;;;;;5074591;28;20535;-70
2023/04/08 00:16:48;;;;;;;0.40;0.40;;;21.50;50.50;;;;;;5073842;28;20202;-67
2023/04/08 00:19:15;;;;;;;3.23;0.40;;;21.60;48.90;;;;;;5076383;28;20214;-71
2023/04/08 00:21:43;;;;;;;2.47;0.60;;;21.30;48.90;;;;;;5075811;28;20189;-69
2023/04/08 00:24:10;;;;;;;0.40;0.40;;;21.40;49.50;;;;;;5069575;28;20183;-69
2023/04/08 00:26:37;;;;;;;1.30;0.50;;;21.60;49.40;;;;;;5074310;28;20187;-69
2023/04/08 00:29:05;;;;;;;0.80;0.70;;;21.80;48.90;;;;;;5072324;28;20179;-67
2023/04/08 00:31:32;;;;;;;0.40;0.40;;;21.80;48.60;;;;;;5069736;28;20194;-69
2023/04/08 00:34:00;;;;;;;1.23;0.40;;;21.80;48.80;;;;;;5072799;28;20188;-69
2023/04/08 00:36:28;;;;;;;0.40;0.40;;;21.80;48.90;;;;;;5073123;28;20258;-68
2023/04/08 00:38:56;;;;;;;0.40;0.40;;;21.70;48.60;;;;;;5070293;28;20208;-69
2023/04/08 00:41:24;;;;;;;1.43;0.70;;;21.70;48.80;;;;;;5055388;28;20184;-68
2023/04/08 00:43:53;;;;;;;2.40;0.40;;;22.00;49.30;;;;;;5072408;28;20218;-67
2023/04/08 00:46:22;;;;;;;0.30;0.30;;;22.00;47.40;;;;;;5069289;28;20634;-71
2023/04/08 00:48:49;;;;;;;0.83;0.43;;;22.00;47.50;;;;;;5067104;28;20262;-72
2023/04/08 00:51:17;;;;;;;0.40;0.40;;;22.00;47.80;;;;;;5068138;28;20552;-69
2023/04/08 00:53:45;;;;;;;0.67;0.40;;;21.90;47.40;;;;;;5065815;28;20187;-71
2023/04/08 00:56:12;;;;;;;0.47;0.47;;;22.10;47.90;;;;;;5071804;28;20179;-71
2023/04/08 00:58:40;;;;;;;0.53;0.40;;;22.20;47.10;;;;;;5068740;28;20666;-72
2023/04/08 01:01:39;;;;;;;0.67;0.40;;;22.30;46.40;;;;;;5071508;28;20187;-70
2023/04/08 01:04:37;;;;;;;0.40;0.40;;;22.00;46.50;;;;;;5052383;28;20176;-70
2023/04/08 01:07:20;;;;;;;0.40;0.40;;;22.00;46.00;;;;;;5069718;28;20206;-72
2023/04/08 01:09:52;;;;;;;0.67;0.40;;;22.00;46.30;;;;;;5071592;28;20223;-71
2023/04/08 01:12:26;;;;;;;0.40;0.40;;;22.20;46.40;;;;;;5071216;28;20652;-72
2023/04/08 01:15:04;;;;;;;1.27;0.50;;;22.20;46.20;;;;;;5067448;28;20182;-70
2023/04/08 01:17:33;;;;;;;0.47;0.47;;;22.30;46.10;;;;;;5064577;28;20183;-69
2023/04/08 01:20:03;;;;;;;1.90;0.50;;;22.40;46.10;;;;;;5070338;28;20672;-66
2023/04/08 01:22:48;;;;;;;0.40;0.40;;;22.50;45.20;;;;;;5072977;28;20174;-71
2023/04/08 01:25:32;;;;;;;0.47;0.40;;;22.70;44.40;;;;;;5071998;28;20626;-72
2023/04/08 01:28:12;;;;;;;0.40;0.40;;;22.50;45.00;;;;;;5072363;28;20543;-71
2023/04/08 01:30:41;;;;;;;0.43;0.40;;;22.50;45.00;;;;;;5073547;28;20517;-68
2023/04/08 01:33:11;;;;;;;1.07;0.60;;;22.50;45.20;;;;;;5073272;28;20181;-67
2023/04/08 01:35:39;;;;;;;1.53;0.50;;;22.70;45.10;;;;;;5073091;28;20168;-70
2023/04/08 01:38:13;;;;;;;1.57;0.43;;;22.80;44.80;;;;;;5072649;28;20182;-71
2023/04/08 01:40:41;;;;;;;0.53;0.40;;;23.00;45.00;;;;;;5073526;28;20211;-70
2023/04/08 01:43:12;;;;;;;0.67;0.40;;;23.10;45.00;;;;;;5072461;28;20527;-69
2023/04/08 01:45:40;;;;;;;0.40;0.40;;;23.20;44.80;;;;;;5073068;28;20633;-71
2023/04/08 01:48:07;;;;;;;0.37;0.37;;;23.20;44.00;;;;;;5073135;28;20193;-73
2023/04/08 01:50:35;;;;;;;0.50;0.40;;;23.10;44.60;;;;;;5073099;28;20177;-72
2023/04/08 01:53:05;;;;;;;0.67;0.30;;;23.20;45.00;;;;;;5073238;28;20283;-69
2023/04/08 01:55:34;;;;;;;0.53;0.47;;;23.30;43.90;;;;;;5072539;28;20184;-71
2023/04/08 01:58:02;;;;;;;0.90;0.50;;;23.30;44.70;;;;;;5074409;28;20176;-69
2023/04/08 02:00:32;;;;;;;0.40;0.40;;;22.70;44.90;;;;;;5053564;28;20227;-68
2023/04/08 02:03:02;;;;;;;0.97;0.43;;;22.30;46.50;;;;;;5070588;28;20213;-71
2023/04/08 02:05:30;;;;;;;0.40;0.40;;;22.80;44.80;;;;;;5073703;28;20254;-71
2023/04/08 02:07:57;;;;;;;0.60;0.40;;;23.30;44.70;;;;;;5089491;28;20194;-70
2023/04/08 02:10:25;;;;;;;0.53;0.40;;;23.50;44.00;;;;;;5074420;28;20294;-67
2023/04/08 02:12:52;;;;;;;0.37;0.37;;;23.60;43.30;;;;;;5074778;28;20194;-71
2023/04/08 02:15:20;;;;;;;0.87;0.50;;;23.80;43.40;;;;;;5074310;28;20599;-70
2023/04/08 02:17:55;;;;;;;0.60;0.40;;;23.90;43.60;;;;;;5073418;28;20181;-72
2023/04/08 02:20:25;;;;;;;0.40;0.40;;;23.90;42.60;;;;;;5072851;28;20213;-70
2023/04/08 02:23:07;;;;;;;0.60;0.37;;;24.00;43.30;;;;;;5072960;28;20207;-70
2023/04/08 02:25:38;;;;;;;0.67;0.43;;;23.80;43.20;;;;;;5072438;28;20178;-66
2023/04/08 02:28:09;;;;;;;0.43;0.40;;;23.80;42.90;;;;;;5072490;28;20171;-69
2023/04/08 02:30:43;;;;;;;0.40;0.40;;;24.20;43.00;;;;;;5067334;28;20187;-69
2023/04/08 02:33:13;;;;;;;0.93;0.37;;;24.40;42.30;;;;;;5064785;28;20209;-68
2023/04/08 02:35:42;;;;;;;1.40;0.40;;;24.80;41.30;;;;;;5070087;28;20276;-70
2023/04/08 02:38:10;;;;;;;0.40;0.40;;;24.70;41.80;;;;;;5072246;28;20503;-69
2023/04/08 02:40:37;;;;;;;0.50;0.40;;;24.60;41.50;;;;;;5073684;28;20207;-66
2023/04/08 02:43:05;;;;;;;0.70;0.40;;;24.60;41.60;;;;;;5074818;28;20633;-68
2023/04/08 02:45:42;;;;;;;0.50;0.50;;;24.50;41.30;;;;;;5074493;28;20602;-69
2023/04/08 02:48:11;;;;;;;0.40;0.30;;;24.40;41.00;;;;;;5075689;28;20175;-68
2023/04/08 02:50:39;;;;;;;0.40;0.37;;;24.80;41.20;;;;;;5076206;28;20202;-68
2023/04/08 02:53:08;;;;;;;0.50;0.30;;;24.70;41.70;;;;;;5076247;28;20696;-70
2023/04/08 02:55:38;;;;;;;0.40;0.40;;;25.20;41.00;;;;;;5075832;28;20179;-68
2023/04/08 02:58:06;;;;;;;1.27;0.40;;;25.40;39.90;;;;;;5076093;28;20175;-71
2023/04/08 03:00:33;;;;;;;1.17;0.47;;;25.30;39.90;;;;;;5076092;28;20704;-67
2023/04/08 03:03:00;;;;;;;0.70;0.40;;;25.10;41.00;;;;;;5076259;28;20216;-69
2023/04/08 03:05:28;;;;;;;0.30;0.30;;;25.20;40.70;;;;;;5075939;28;20171;-69
2023/04/08 03:07:55;;;;;;;0.47;0.40;;;25.00;40.70;;;;;;5075905;28;20176;-68
2023/04/08 03:10:22;;;;;;;1.70;0.60;;;25.30;40.30;;;;;;5076157;28;20268;-71
2023/04/08 03:12:50;;;;;;;1.20;0.50;;;25.50;39.50;;;;;;5075798;28;20186;-66
2023/04/08 03:15:17;;;;;;;0.30;0.30;;;25.70;39.60;;;;;;5075925;28;20187;-70
2023/04/08 03:17:44;;;;;;;0.63;0.60;;;26.10;38.90;;;;;;5075688;28;20175;-68
2023/04/08 03:20:12;;;;;;;0.57;0.30;;;25.80;38.20;;;;;;5075412;28;20211;-69
2023/04/08 03:22:40;;;;;;;1.40;0.40;;;25.50;39.10;;;;;;5074689;28;20186;-68
2023/04/08 03:25:07;;;;;;;0.90;0.47;;;25.20;39.50;;;;;;5075824;28;20630;-69
2023/04/08 03:27:35;;;;;;;0.80;0.30;;;25.50;39.90;;;;;;5075588;28;20167;-69
2023/04/08 03:30:02;;;;;;;0.40;0.40;;;25.30;39.40;;;;;;5075581;28;20179;-69
2023/04/08 03:32:30;;;;;;;0.30;0.30;;;25.40;39.60;;;;;;5075452;28;20705;-71
2023/04/08 03:35:02;;;;;;;1.70;0.40;;;25.10;39.90;;;;;;5075377;28;20190;-71
2023/04/08 03:37:30;;;;;;;1.00;0.30;;;25.50;39.10;;;;;;5075542;28;20167;-71
2023/04/08 03:39:57;;;;;;;1.60;0.40;;;25.40;39.10;;;;;;5075358;28;21126;-67
2023/04/08 03:42:27;;;;;;;0.30;0.30;;;25.40;39.70;;;;;;5070560;28;20175;-70
2023/04/08 03:44:55;;;;;;;0.90;0.50;;;25.80;38.90;;;;;;5070840;28;20175;-71
2023/04/08 03:47:22;;;;;;;0.40;0.33;;;25.80;38.40;;;;;;5069717;28;20677;-68
2023/04/08 03:49:51;;;;;;;1.47;0.50;;;25.70;38.70;;;;;;5060689;28;20571;-69
2023/04/08 03:52:19;;;;;;;0.53;0.40;;;26.20;37.60;;;;;;5061635;28;20586;-69
2023/04/08 03:54:47;;;;;;;0.70;0.30;;;25.80;38.60;;;;;;5073412;28;20243;-72
2023/04/08 03:57:14;;;;;;;0.30;0.30;;;26.20;37.70;;;;;;5074468;28;20602;-72
2023/04/08 03:59:42;;;;;;;0.73;0.40;;;26.20;38.20;;;;;;5074124;28;20294;-72
2023/04/08 04:02:10;;;;;;;0.70;0.50;;;25.80;38.20;;;;;;5074956;28;20602;-72
2023/04/08 04:04:38;;;;;;;1.10;0.60;;;25.80;38.00;;;;;;5082129;28;20215;-69
2023/04/08 04:07:05;;;;;;;0.40;0.40;;;25.80;38.30;;;;;;5066200;28;20179;-70
2023/04/08 04:09:32;;;;;;;0.63;0.50;;;25.60;37.90;;;;;;5073968;28;20211;-70
2023/04/08 04:12:00;;;;;;;0.90;0.43;;;26.00;37.90;;;;;;5088443;28;20206;-71
2023/04/08 04:14:27;;;;;;;0.90;0.50;;;26.00;38.70;;;;;;5074023;28;20769;-69
2023/04/08 04:16:55;;;;;;;0.30;0.30;;;25.90;39.20;;;;;;5074561;28;20182;-73
2023/04/08 04:19:22;;;;;;;0.30;0.30;;;25.90;38.70;;;;;;5074179;28;20202;-71
2023/04/08 04:21:49;;;;;;;1.47;0.40;;;25.40;39.20;;;;;;5074334;28;20191;-73
2023/04/08 04:24:17;;;;;;;0.80;0.30;;;25.50;39.50;;;;;;5074759;28;20652;-74
2023/04/08 04:26:44;;;;;;;0.60;0.40;;;25.40;39.40;;;;;;5074364;28;20266;-72
2023/04/08 04:29:11;;;;;;;0.77;0.50;;;25.20;39.70;;;;;;5075634;28;20198;-70
2023/04/08 04:31:40;;;;;;;0.60;0.40;;;24.40;42.10;;;;;;5066375;28;20633;-69
2023/04/08 04:34:08;;;;;;;0.30;0.30;;;24.40;42.50;;;;;;5067164;28;20186;-70
2023/04/08 04:36:35;;;;;;;0.77;0.50;;;23.70;43.00;;;;;;5071047;28;20196;-70
2023/04/08 04:39:03;;;;;;;0.50;0.40;;;23.80;42.80;;;;;;5072792;28;20191;-73
2023/04/08 04:41:30;;;;;;;0.40;0.40;;;24.00;43.00;;;;;;5073247;28;20174;-69
2023/04/08 04:43:57;;;;;;;1.17;0.60;;;24.50;41.20;;;;;;5072095;28;20213;-71
2023/04/08 04:46:28;;;;;;;0.70;0.40;;;25.10;39.90;;;;;;5073408;28;20709;-71
2023/04/08 04:48:56;;;;;;;1.40;0.37;;;25.70;40.00;;;;;;5074115;28;20194;-71
2023/04/08 04:51:23;;;;;;;0.53;0.40;;;26.30;38.00;;;;;;5072618;28;20187;-72
2023/04/08 04:53:50;;;;;;;0.40;0.40;;;26.30;38.20;;;;;;5063693;28;20203;-72
2023/04/08 04:56:18;;;;;;;0.40;0.40;;;26.00;37.90;;;;;;5073425;28;20179;-72
2023/04/08 04:58:45;;;;;;;0.30;0.30;;;24.90;39.70;;;;;;5071475;28;20171;-72
2023/04/08 05:01:12;;;;;;;1.77;0.47;;;24.40;41.00;;;;;;5066304;28;20187;-69
2023/04/08 05:03:40;;;;;;;0.73;0.43;;;25.00;40.60;;;;;;5068652;28;20713;-69
2023/04/08 05:06:07;;;;;;;2.27;0.50;;;25.80;39.10;;;;;;5073201;28;20183;-69
2023/04/08 05:08:35;;;;;;;2.47;0.40;;;26.30;37.80;;;;;;5072152;28;20211;-69
2023/04/08 05:11:02;;;;;;;1.03;0.50;;;26.70;37.20;;;;;;5072919;28;20211;-67
2023/04/08 05:13:29;;;;;;;0.87;0.60;;;25.20;39.90;;;;;;5073444;28;20183;-67
2023/04/08 05:15:57;;;;;;;2.90;1.83;;;25.80;39.60;;;;;;5073155;28;20605;-68
2023/04/08 05:18:24;;;;;;;1.73;1.57;;;25.30;40.30;;;;;;5072451;28;20637;-69
2023/04/08 05:20:51;;;;;;;0.90;0.70;;;25.90;39.60;;;;;;5071683;28;20215;-68
2023/04/08 05:23:19;;;;;;;5.73;3.50;;;24.90;40.00;;;;;;5070969;28;20217;-68
2023/04/08 05:25:46;;;;;;;1.33;0.93;;;25.20;40.30;;;;;;5073394;28;20201;-68
2023/04/08 05:28:14;;;;;;;1.27;0.60;;;24.70;40.40;;;;;;5073294;28;20211;-70
2023/04/08 05:30:41;;;;;;;0.60;0.60;;;24.50;41.10;;;;;;5073221;28;20236;-67
2023/04/08 05:33:08;;;;;;;0.60;0.60;;;23.90;42.60;;;;;;5072196;28;20206;-69
2023/04/08 05:35:36;;;;;;;0.73;0.70;;;24.60;41.20;;;;;;5072105;28;20183;-70
2023/04/08 05:38:03;;;;;;;3.33;1.93;;;24.00;42.90;;;;;;5070882;28;20179;-66
2023/04/08 05:40:31;;;;;;;2.63;2.20;;;23.90;42.70;;;;;;5053185;28;20211;-66
2023/04/08 05:42:58;;;;;;;1.17;1.03;;;24.20;42.30;;;;;;5068574;28;20175;-66
2023/04/08 05:45:26;;;;;;;3.77;1.00;;;23.80;43.00;;;;;;5065555;28;20214;-69
2023/04/08 05:47:54;;;;;;;1.27;0.80;;;24.00;42.20;;;;;;5064671;28;20175;-67
2023/04/08 05:50:21;;;;;;;1.10;0.90;;;23.50;43.60;;;;;;5065375;28;20219;-71
2023/04/08 05:52:49;;;;;;;1.10;1.00;;;23.40;42.50;;;;;;5072455;28;20185;-69
2023/04/08 05:55:16;;;;;;;1.10;1.00;;;23.10;43.50;;;;;;5070456;28;20278;-68
2023/04/08 05:57:44;;;;;;;1.40;1.10;;;22.90;44.20;;;;;;5068264;28;20208;-69
2023/04/08 06:00:11;;;;;;;1.20;1.10;;;22.80;44.80;;;;;;5070000;28;20679;-67
2023/04/08 06:02:39;;;;;;;2.07;1.50;;;23.00;44.20;;;;;;5068367;28;20205;-68
2023/04/08 06:05:06;;;;;;;1.13;1.03;;;23.30;44.00;;;;;;5069532;28;20278;-67
2023/04/08 06:07:34;;;;;;;1.57;1.47;;;23.20;43.70;;;;;;5069826;28;20274;-67
2023/04/08 06:10:02;;;;;;;1.57;1.00;;;23.00;44.10;;;;;;5069765;28;20276;-72
2023/04/08 06:12:29;;;;;;;1.40;0.90;;;24.00;42.10;;;;;;5070932;28;20613;-68
2023/04/08 06:14:56;;;;;;;2.23;1.33;;;24.20;41.90;;;;;;5071145;28;20183;-69
2023/04/08 06:17:24;;;;;;;2.23;1.73;;;24.50;41.30;;;;;;5072125;28;20246;-68
2023/04/08 06:19:51;;;;;;;4.27;2.80;;;23.70;43.00;;;;;;5071526;28;20288;-69
2023/04/08 06:22:18;;;;;;;2.10;1.70;;;23.30;44.60;;;;;;5072556;28;20175;-70
2023/04/08 06:24:47;;;;;;;3.10;2.27;;;23.00;44.70;;;;;;5069060;28;20216;-75
2023/04/08 06:27:16;;;;;;;1.77;1.50;;;22.80;45.40;;;;;;5071172;28;20634;-68
2023/04/08 06:29:43;;;;;;;2.00;1.80;;;22.80;45.00;;;;;;5072051;28;20171;-74
2023/04/08 06:32:10;;;;;;;2.53;1.40;;;22.80;44.30;;;;;;5067342;28;20180;-71
2023/04/08 06:34:38;;;;;;;1.90;1.70;;;22.60;44.60;;;;;;5066675;28;20179;-75
2023/04/08 06:37:06;;;;;;;2.70;1.83;;;22.50;44.90;;;;;;5072241;28;20183;-74
2023/04/08 06:39:33;;;;;;;1.60;1.50;;;22.40;44.70;;;;;;5071700;28;20205;-73
2023/04/08 06:42:01;;;;;;;1.60;1.40;;;22.30;44.70;;;;;;5069919;28;20191;-71
2023/04/08 06:44:28;;;;;;;1.70;1.60;;;22.80;43.00;;;;;;5066940;28;20213;-71
2023/04/08 06:46:55;;;;;;;1.80;1.70;;;22.80;42.80;;;;;;5070523;28;20187;-68
2023/04/08 06:49:23;;;;;;;2.43;1.83;;;22.60;43.40;;;;;;5070622;28;20344;-70
2023/04/08 06:51:53;;;;;;;2.60;1.90;;;22.80;43.50;;;;;;5070533;28;20187;-72
2023/04/08 06:54:20;;;;;;;2.80;2.30;;;23.00;42.70;;;;;;5069760;28;20190;-72
2023/04/08 06:56:48;;;;;;;3.10;2.63;;;22.90;42.90;;;;;;5071272;28;20183;-70
2023/04/08 06:59:15;;;;;;;1.70;1.60;;;22.80;43.20;;;;;;5070977;28;20202;-73
2023/04/08 07:01:42;;;;;;;3.20;2.53;;;22.90;42.80;;;;;;5069413;28;20274;-71
2023/04/08 07:04:10;;;;;;;2.40;2.20;;;23.00;42.30;;;;;;5072375;28;20224;-67
2023/04/08 07:06:37;;;;;;;4.67;3.13;;;22.80;42.90;;;;;;5071238;28;20553;-66
2023/04/08 07:09:04;;;;;;;3.07;2.27;;;22.40;43.80;;;;;;5071588;28;20229;-67
2023/04/08 07:11:32;;;;;;;2.30;1.70;;;22.30;44.20;;;;;;5069842;28;20191;-66
2023/04/08 07:14:00;;;;;;;4.43;1.90;;;22.30;44.60;;;;;;5071864;28;20175;-66
2023/04/08 07:16:27;;;;;;;2.80;2.07;;;22.20;44.60;;;;;;5070356;28;20183;-66
2023/04/08 07:18:54;;;;;;;3.20;2.43;;;21.90;45.30;;;;;;5071747;28;20191;-66
2023/04/08 07:21:22;;;;;;;2.40;1.87;;;21.90;45.40;;;;;;5070025;28;20248;-67
2023/04/08 07:23:49;;;;;;;4.77;2.53;;;21.80;45.50;;;;;;5070101;28;20250;-66
2023/04/08 07:26:17;;;;;;;4.17;2.40;;;21.70;46.20;;;;;;5063572;28;20190;-71
2023/04/08 07:28:44;;;;;;;2.27;1.97;;;21.60;46.60;;;;;;5068449;28;20191;-73
2023/04/08 07:31:13;;;;;;;2.23;2.00;;;21.50;47.20;;;;;;5072852;28;20191;-72
2023/04/08 07:33:41;;;;;;;3.27;2.43;;;21.50;47.10;;;;;;5071055;28;20571;-72
2023/04/08 07:36:12;;;;;;;4.47;2.50;;;21.30;47.60;;;;;;5072940;28;20194;-70
2023/04/08 07:38:40;;;;;;;4.03;2.30;;;21.30;47.60;;;;;;5073924;28;20191;-70
2023/04/08 07:41:07;;;;;;;3.97;2.67;;;21.20;47.70;;;;;;5074344;28;20284;-66
2023/04/08 07:43:36;;;;;;;2.43;2.17;;;21.20;48.10;;;;;;5073406;28;20183;-67
2023/04/08 07:46:04;;;;;;;2.73;2.20;;;21.10;48.40;;;;;;5074092;28;20544;-67
2023/04/08 07:48:35;;;;;;;2.13;1.93;;;21.20;48.00;;;;;;5067763;28;20718;-66
2023/04/08 07:51:07;;;;;;;4.63;2.17;;;21.10;48.10;;;;;;5073803;28;20190;-67
2023/04/08 07:53:35;;;;;;;2.57;2.10;;;21.00;48.40;;;;;;5073937;28;20190;-68
2023/04/08 07:56:05;;;;;;;2.77;2.00;;;21.00;48.60;;;;;;5082378;28;20198;-67
2023/04/08 07:58:32;;;;;;;2.13;1.90;;;20.90;48.70;;;;;;5073044;28;20179;-67
2023/04/08 08:01:00;;;;;;;2.53;2.30;;;20.90;48.70;;;;;;5070872;28;20219;-68
2023/04/08 08:03:27;;;;;;;2.83;2.07;;;20.90;48.70;;;;;;5073448;28;20191;-68
2023/04/08 08:05:54;;;;;;;2.23;1.93;;;20.90;48.80;;;;;;5072474;28;20190;-66
2023/04/08 08:08:22;;;;;;;2.27;1.73;;;20.80;49.20;;;;;;5073704;28;20223;-67
2023/04/08 08:10:49;;;;;;;3.07;2.37;;;20.80;49.10;;;;;;5073577;28;20183;-66
2023/04/08 08:13:20;;;;;;;7.23;2.40;;;20.80;49.60;;;;;;5072592;28;20632;-68
2023/04/08 08:15:52;;;;;;;3.87;2.63;;;20.70;49.70;;;;;;5071096;28;20180;-69
2023/04/08 08:18:19;;;;;;;2.77;2.40;;;20.70;49.90;;;;;;5087802;28;20215;-68
2023/04/08 08:20:47;;;;;;;2.50;2.10;;;20.60;50.10;;;;;;5073550;28;20327;-68
2023/04/08 08:23:15;;;;;;;3.07;2.23;;;20.60;50.10;;;;;;5073905;28;20614;-66
2023/04/08 08:25:42;;;;;;;3.70;2.53;;;20.60;50.20;;;;;;5073145;28;20194;-68
2023/04/08 08:28:10;;;;;;;3.07;2.30;;;20.50;50.30;;;;;;5073289;28;20270;-65
2023/04/08 08:30:37;;;;;;;3.77;2.33;;;20.50;50.30;;;;;;5073545;28;20190;-69
2023/04/08 08:33:05;;;;;;;2.27;2.07;;;20.40;50.20;;;;;;5065566;28;20272;-68
2023/04/08 08:35:32;;;;;;;2.20;2.00;;;20.40;50.00;;;;;;5065100;28;20186;-69
2023/04/08 08:38:00;;;;;;;2.80;2.50;;;20.40;50.00;;;;;;5072248;28;20285;-69
2023/04/08 08:40:27;;;;;;;4.43;2.23;;;20.30;50.10;;;;;;5073618;28;20219;-66
2023/04/08 08:42:56;;;;;;;3.07;2.33;;;20.40;49.70;;;;;;5072308;28;20518;-70
2023/04/08 08:45:24;;;;;;;2.37;2.17;;;20.30;49.50;;;;;;5073473;28;20179;-67
2023/04/08 08:47:51;;;;;;;2.50;1.90;;;20.30;49.70;;;;;;5070322;28;20602;-69
2023/04/08 08:50:19;;;;;;;2.40;2.20;;;20.30;50.40;;;;;;5073171;28;20535;-67
2023/04/08 08:52:50;;;;;;;5.07;2.20;;;20.20;50.30;;;;;;5072826;28;20176;-68
2023/04/08 08:55:21;;;;;;;2.87;2.43;;;20.20;50.50;;;;;;5073602;28;20176;-68
2023/04/08 08:57:51;;;;;;;2.67;2.30;;;20.10;51.00;;;;;;5072407;28;20194;-67
2023/04/08 09:00:30;;;;;;;3.40;2.40;;;20.00;50.90;;;;;;5073304;28;20301;-68
2023/04/08 09:03:13;;;;;;;2.67;2.47;;;20.00;50.30;;;;;;5072480;28;20607;-66
2023/04/08 09:05:55;;;;;;;2.43;2.20;;;20.10;50.60;;;;;;5072925;28;20290;-68
2023/04/08 09:08:37;;;;;;;2.80;2.47;;;20.00;50.80;;;;;;5072897;28;20306;-67
2023/04/08 09:11:17;;;;;;;2.67;2.30;;;20.00;50.90;;;;;;5073597;28;20212;-71
2023/04/08 09:13:45;;;;;;;3.97;2.37;;;19.90;51.00;;;;;;5072074;28;20173;-70
2023/04/08 09:16:16;;;;;;;5.13;2.63;;;19.90;50.90;;;;;;5073897;28;20700;-71
2023/04/08 09:18:46;;;;;;;2.90;2.10;;;20.00;50.60;;;;;;5060263;28;20199;-72
2023/04/08 09:21:15;;;;;;;2.77;2.27;;;19.90;50.80;;;;;;5072661;28;20218;-71
2023/04/08 09:23:47;;;;;;;4.63;2.33;;;19.90;50.70;;;;;;5072348;28;20188;-68
2023/04/08 09:26:16;;;;;;;2.47;2.00;;;19.90;51.00;;;;;;5059795;28;20698;-71
2023/04/08 09:28:56;;;;;;;3.23;2.53;;;19.80;51.00;;;;;;5071127;28;20191;-70
2023/04/08 09:31:26;;;;;;;4.23;2.40;;;19.80;51.20;;;;;;5071713;28;20194;-71
2023/04/08 09:33:59;;;;;;;5.60;2.30;;;19.80;51.20;;;;;;5072128;28;20237;-71
2023/04/08 09:36:27;;;;;;;5.40;2.70;;;19.80;51.40;;;;;;5072652;28;20262;-73
2023/04/08 09:38:55;;;;;;;4.33;2.50;;;19.70;51.80;;;;;;5069116;28;20214;-70
2023/04/08 09:41:24;;;;;;;6.40;2.60;;;19.60;52.10;;;;;;5059869;28;20194;-69
2023/04/08 09:43:54;;;;;;;5.13;2.37;;;19.60;52.30;;;;;;5071331;28;20228;-67
2023/04/08 09:46:51;;;;;;;4.20;2.10;;;19.60;52.40;;;;;;5070642;28;20218;-71
2023/04/08 09:49:35;;;;;;;4.10;2.43;;;19.60;52.50;;;;;;5065602;28;20274;-72
2023/04/08 09:52:28;;;;;;;3.27;2.20;;;19.50;52.80;;;;;;5068627;28;20186;-72
2023/04/08 09:55:05;;;;;;;5.30;2.20;;;19.50;52.80;;;;;;5070063;28;20175;-72
2023/04/08 09:57:43;;;;;;;3.00;2.20;;;19.50;53.10;;;;;;5068167;28;20190;-71
2023/04/08 10:00:12;;;;;;;3.40;2.20;;;19.50;53.20;;;;;;5070800;28;20210;-73
2023/04/08 10:03:10;;;;;;;2.93;2.20;;;19.40;53.00;;;;;;5072333;28;20198;-70
2023/04/08 10:05:40;;;;;;;2.20;2.00;;;19.40;53.10;;;;;;5059405;28;20187;-71
2023/04/08 10:08:07;;;;;;;3.30;2.50;;;19.30;53.10;;;;;;5069677;28;20224;-70
2023/04/08 10:10:38;;;;;;;2.50;2.27;;;19.30;53.60;;;;;;5072296;28;20202;-70
2023/04/08 10:13:06;;;;;;;4.67;2.77;;;19.30;53.70;;;;;;5071382;28;20175;-71
2023/04/08 10:15:38;;;;;;;4.67;2.33;;;19.30;53.80;;;;;;5071673;28;20591;-70
2023/04/08 10:18:05;;;;;;;3.67;2.70;;;19.20;54.20;;;;;;5070587;28;20175;-67
2023/04/08 10:20:35;;;;;;;5.33;3.00;;;19.20;54.00;;;;;;5072002;28;20760;-66
2023/04/08 10:23:16;;;;;;;2.63;2.30;;;19.10;53.80;;;;;;5071967;28;20199;-66
2023/04/08 10:25:48;;;;;;;3.77;2.57;;;19.10;53.90;;;;;;5071325;28;20601;-66
2023/04/08 10:28:18;;;;;;;4.30;2.47;;;19.10;53.60;;;;;;5072239;28;20171;-63
2023/04/08 10:30:46;;;;;;;4.17;2.47;;;19.10;53.80;;;;;;5068820;28;20179;-68
2023/04/08 10:33:20;;;;;;;3.43;2.23;;;19.00;53.60;;;;;;5068750;28;20235;-66
2023/04/08 10:36:13;;;;;;;3.40;2.50;;;19.00;53.70;;;;;;5070798;28;20198;-67
2023/04/08 10:38:42;;;;;;;3.27;2.10;;;19.00;53.70;;;;;;5066384;28;20183;-67
2023/04/08 10:41:20;;;;;;;3.03;2.33;;;19.00;53.10;;;;;;5070474;28;20685;-66
2023/04/08 10:43:47;;;;;;;2.63;2.20;;;19.00;52.90;;;;;;5064796;28;20175;-70
2023/04/08 10:46:16;;;;;;;3.00;2.07;;;19.00;52.50;;;;;;5058629;28;20179;-67
2023/04/08 10:48:43;;;;;;;3.87;2.00;;;19.10;52.10;;;;;;5071251;28;20228;-69
2023/04/08 10:51:11;;;;;;;3.93;2.00;;;19.20;51.70;;;;;;5069749;28;20171;-67
2023/04/08 10:53:39;;;;;;;3.00;2.30;;;19.10;51.80;;;;;;5071236;28;20183;-71
2023/04/08 10:56:16;;;;;;;2.27;1.93;;;19.10;51.70;;;;;;5071940;28;20178;-72
2023/04/08 10:58:57;;;;;;;2.33;2.13;;;19.00;52.00;;;;;;5071850;28;20191;-68
2023/04/08 11:01:26;;;;;;;2.60;1.73;;;19.00;51.80;;;;;;5074075;28;20187;-69
2023/04/08 11:03:53;;;;;;;4.87;2.17;;;19.00;52.30;;;;;;5074242;28;20242;-70
2023/04/08 11:06:20;;;;;;;3.53;1.67;;;18.90;51.70;;;;;;5074210;28;20185;-71
2023/04/08 11:08:48;;;;;;;3.10;1.90;;;19.00;51.60;;;;;;5065850;28;20219;-69
2023/04/08 11:11:16;;;;;;;3.97;1.60;;;18.90;51.30;;;;;;5058818;28;20171;-69
2023/04/08 11:13:45;;;;;;;1.87;1.60;;;19.00;51.00;;;;;;5071772;28;20190;-69
2023/04/08 11:16:14;;;;;;;2.70;1.80;;;19.00;51.30;;;;;;5067204;28;20551;-65
2023/04/08 11:18:41;;;;;;;4.80;1.60;;;18.90;51.20;;;;;;5064827;28;20583;-67
2023/04/08 11:21:11;;;;;;;3.00;1.63;;;18.80;51.30;;;;;;5074089;28;20222;-70
2023/04/08 11:23:39;;;;;;;2.87;1.80;;;18.90;51.20;;;;;;5078786;28;20184;-64
2023/04/08 11:26:07;;;;;;;4.83;1.50;;;18.90;51.20;;;;;;5072161;28;20249;-70
2023/04/08 11:28:35;;;;;;;2.63;1.50;;;18.80;51.40;;;;;;5069943;28;20185;-67
2023/04/08 11:31:03;;;;;;;1.97;1.60;;;18.80;51.10;;;;;;5074414;28;20175;-72
2023/04/08 11:33:35;;;;;;;4.13;1.37;;;18.80;50.80;;;;;;5073618;28;20194;-68
2023/04/08 11:36:03;;;;;;;1.63;1.40;;;18.80;50.40;;;;;;5062224;28;20265;-72
2023/04/08 11:38:31;;;;;;;1.33;1.23;;;18.80;50.30;;;;;;5074913;28;20202;-70
2023/04/08 11:40:59;;;;;;;3.50;1.20;;;18.80;50.50;;;;;;5074981;28;20234;-69
2023/04/08 11:43:27;;;;;;;3.23;1.60;;;18.80;49.80;;;;;;5074830;28;20179;-70
2023/04/08 11:45:55;;;;;;;1.77;1.20;;;18.80;50.30;;;;;;5071001;28;20190;-70
2023/04/08 11:48:23;;;;;;;4.87;1.20;;;18.80;50.30;;;;;;5074739;28;20183;-68
2023/04/08 11:51:11;;;;;;;4.03;1.80;;;18.80;49.70;;;;;;5075525;28;20310;-71
2023/04/08 11:53:38;;;;;;;3.57;1.40;;;18.80;50.00;;;;;;5065435;28;20180;-69
2023/04/08 11:56:26;;;;;;;3.07;1.27;;;18.80;50.10;;;;;;5066350;28;20186;-69
2023/04/08 11:58:53;;;;;;;3.07;1.13;;;18.80;50.10;;;;;;5072268;28;20175;-66
2023/04/08 12:01:21;;;;;;;1.67;1.40;;;18.70;50.50;;;;;;5073079;28;20222;-70
2023/04/08 12:03:58;;;;;;;4.30;1.37;;;18.60;50.40;;;;;;5071394;28;20256;-70
2023/04/08 12:06:26;;;;;;;2.53;1.30;;;18.70;50.30;;;;;;5072154;28;20183;-68
2023/04/08 12:08:54;;;;;;;1.67;1.10;;;18.60;50.30;;;;;;5073691;28;20583;-68
2023/04/08 12:11:24;;;;;;;1.83;1.30;;;18.60;50.60;;;;;;5072316;28;20183;-67
2023/04/08 12:13:54;;;;;;;2.40;1.30;;;18.50;50.40;;;;;;5070994;28;20654;-66
2023/04/08 12:16:21;;;;;;;2.10;1.20;;;18.50;50.60;;;;;;5071682;28;20191;-66
2023/04/08 12:18:49;;;;;;;4.00;1.10;;;18.50;50.60;;;;;;5073711;28;20175;-65
2023/04/08 12:21:16;;;;;;;2.77;1.10;;;18.50;50.40;;;;;;5072182;28;20309;-65
2023/04/08 12:23:43;;;;;;;2.83;1.13;;;18.50;50.50;;;;;;5074383;28;20180;-65
2023/04/08 12:26:12;;;;;;;2.73;1.20;;;18.40;50.70;;;;;;5074041;28;20179;-66
2023/04/08 12:28:39;;;;;;;1.60;1.10;;;18.40;50.80;;;;;;5073984;28;20187;-67
2023/04/08 12:31:06;;;;;;;4.40;1.30;;;18.40;50.90;;;;;;5073036;28;20266;-66
2023/04/08 12:33:34;;;;;;;2.30;1.30;;;18.40;50.70;;;;;;5071242;28;20203;-65
2023/04/08 12:36:01;;;;;;;1.23;1.13;;;18.40;50.90;;;;;;5073968;28;20175;-67
2023/04/08 12:38:28;;;;;;;2.23;1.40;;;18.30;50.90;;;;;;5073225;28;20236;-69
2023/04/08 12:40:56;;;;;;;2.80;1.60;;;18.30;51.10;;;;;;5074246;28;20219;-70
2023/04/08 12:43:23;;;;;;;1.63;1.30;;;18.30;50.90;;;;;;5074097;28;20236;-72
2023/04/08 12:45:51;;;;;;;2.60;1.07;;;18.30;51.20;;;;;;5073783;28;20237;-71
2023/04/08 12:48:19;;;;;;;3.87;1.20;;;18.30;51.00;;;;;;5073683;28;20175;-72
2023/04/08 12:50:46;;;;;;;3.43;1.30;;;18.30;51.00;;;;;;5069838;28;20182;-71
2023/04/08 12:53:14;;;;;;;0.90;0.90;;;18.30;51.20;;;;;;5073854;28;20189;-70
2023/04/08 12:55:41;;;;;;;1.63;1.20;;;18.30;51.00;;;;;;5073384;28;20187;-67
2023/04/08 12:58:08;;;;;;;1.03;0.83;;;18.30;51.20;;;;;;5074057;28;20176;-65
2023/04/08 13:00:45;;;;;;;6.87;1.00;;;18.20;51.60;;;;;;5073355;28;20218;-65